Time;durP1;ratioP1;P1;durP2;ratioP2;P2;SDS_P1;SDS_P2;PMS_P1;PMS_P2;Temp;Humidity;BMP_temperature;BMP_pressure;BME280_temperature;BME280_humidity;BME280_pressure;Samples;Min_cycle;Max_cycle;Signal;HPM_P1;HPM_P2
2022/09/16 00:02:22;;;;;;;40.53;38.03;;;12.30;99.90;;;;;;4987103;28;20264;-78
2022/09/16 00:04:48;;;;;;;46.13;43.33;;;12.30;99.90;;;;;;4974240;28;20700;-78
2022/09/16 00:07:14;;;;;;;36.73;34.40;;;12.30;99.90;;;;;;4978731;28;20184;-77
2022/09/16 00:09:40;;;;;;;39.93;37.37;;;12.30;99.90;;;;;;4978293;28;20191;-78
2022/09/16 00:12:06;;;;;;;81.13;48.80;;;12.30;99.90;;;;;;4976508;28;20193;-78
2022/09/16 00:14:32;;;;;;;33.50;30.67;;;12.40;99.90;;;;;;4976223;28;20188;-78
2022/09/16 00:16:58;;;;;;;38.37;35.17;;;12.40;99.90;;;;;;4975436;28;20702;-78
2022/09/16 00:19:24;;;;;;;59.13;55.63;;;12.50;99.90;;;;;;4974602;28;20205;-78
2022/09/16 00:21:51;;;;;;;52.83;49.27;;;12.50;99.90;;;;;;4975238;28;20212;-78
2022/09/16 00:24:16;;;;;;;42.43;38.80;;;12.50;99.90;;;;;;4975638;28;20228;-78
2022/09/16 00:26:43;;;;;;;55.43;46.63;;;12.40;99.90;;;;;;4975431;28;20814;-78
2022/09/16 00:29:09;;;;;;;55.00;49.20;;;12.40;99.90;;;;;;4978704;28;20177;-78
2022/09/16 00:31:35;;;;;;;58.30;23.23;;;12.40;99.90;;;;;;4975560;28;20294;-78
2022/09/16 00:34:01;;;;;;;46.97;17.60;;;12.40;99.90;;;;;;4975398;28;20211;-78
2022/09/16 00:36:28;;;;;;;30.60;20.17;;;12.50;99.90;;;;;;4974903;28;20196;-78
2022/09/16 00:38:54;;;;;;;30.30;28.03;;;12.50;99.90;;;;;;4974989;28;20271;-78
2022/09/16 00:41:31;;;;;;;61.63;37.13;;;12.60;99.90;;;;;;4975433;28;20332;-78
2022/09/16 00:44:04;;;;;;;41.27;38.03;;;12.60;99.90;;;;;;4973901;28;20290;-78
2022/09/16 00:46:40;;;;;;;36.07;33.27;;;12.60;99.90;;;;;;4973841;28;20614;-78
2022/09/16 00:49:19;;;;;;;13.10;12.00;;;12.70;99.90;;;;;;4974627;28;20676;-78
2022/09/16 00:51:50;;;;;;;23.70;15.50;;;12.70;99.90;;;;;;4974810;28;20193;-78
2022/09/16 00:54:17;;;;;;;113.10;106.80;;;12.70;99.90;;;;;;4973510;28;20715;-78
2022/09/16 00:56:49;;;;;;;156.23;147.50;;;12.70;99.90;;;;;;4974649;28;20245;-78
2022/09/16 00:59:25;;;;;;;185.33;175.17;;;12.70;99.90;;;;;;4974909;28;20191;-78
2022/09/16 01:01:54;;;;;;;142.97;135.10;;;12.70;99.90;;;;;;4974962;28;20173;-78
2022/09/16 01:04:28;;;;;;;131.00;123.87;;;12.70;99.90;;;;;;4975314;28;20217;-78
2022/09/16 01:06:55;;;;;;;138.43;130.83;;;12.70;99.90;;;;;;4983240;28;20185;-78
2022/09/16 01:09:22;;;;;;;148.60;140.40;;;12.80;99.90;;;;;;4972551;28;20251;-78
2022/09/16 01:11:48;;;;;;;132.63;125.27;;;12.70;99.90;;;;;;4973823;28;20192;-78
2022/09/16 01:17:11;;;;;;;81.73;44.37;;;12.70;99.90;;;;;;4973128;28;20219;-77
2022/09/16 01:20:02;;;;;;;49.50;46.53;;;12.70;99.90;;;;;;4954257;28;20181;-77
2022/09/16 01:22:44;;;;;;;45.43;42.50;;;12.70;99.90;;;;;;4960344;28;20301;-78
2022/09/16 01:25:48;;;;;;;37.90;35.57;;;12.70;99.90;;;;;;4957813;28;20217;-78
2022/09/16 01:28:42;;;;;;;39.23;36.90;;;12.70;99.90;;;;;;4953977;29;20275;-78
2022/09/16 01:31:37;;;;;;;30.23;28.20;;;12.70;99.90;;;;;;4955353;28;20280;-78
2022/09/16 01:34:16;;;;;;;28.17;26.07;;;12.70;99.90;;;;;;4973304;28;20720;-78
2022/09/16 01:36:58;;;;;;;25.67;23.70;;;12.80;99.90;;;;;;4974190;28;20217;-77
2022/09/16 01:39:46;;;;;;;107.50;101.23;;;12.80;99.90;;;;;;4972772;28;20606;-78
2022/09/16 01:42:38;;;;;;;184.87;174.13;;;12.80;99.90;;;;;;4972996;28;20231;-78
2022/09/16 01:45:21;;;;;;;210.97;199.37;;;12.80;99.90;;;;;;4973272;28;20611;-78
2022/09/16 01:48:13;;;;;;;192.60;181.27;;;12.70;99.90;;;;;;4970802;28;20215;-77
2022/09/16 01:50:49;;;;;;;173.70;164.20;;;12.70;99.90;;;;;;4953710;28;20192;-77
2022/09/16 01:53:18;;;;;;;114.37;107.90;;;12.80;99.90;;;;;;4953578;28;20900;-77
2022/09/16 01:55:53;;;;;;;102.07;96.13;;;12.70;99.90;;;;;;4952614;29;20623;-77
2022/09/16 01:58:27;;;;;;;155.03;146.23;;;12.80;99.90;;;;;;4953595;28;20181;-77
2022/09/16 02:01:03;;;;;;;156.63;148.03;;;12.80;99.90;;;;;;4965422;28;20187;-77
2022/09/16 02:03:35;;;;;;;86.30;81.53;;;12.80;99.90;;;;;;4974211;28;20222;-77
2022/09/16 02:06:15;;;;;;;87.07;82.07;;;12.70;99.90;;;;;;4973195;28;20555;-77
2022/09/16 02:08:52;;;;;;;70.73;66.60;;;12.70;99.90;;;;;;4975747;28;20222;-78
2022/09/16 02:11:19;;;;;;;61.37;57.37;;;12.60;99.90;;;;;;4981672;28;20190;-78
2022/09/16 02:13:53;;;;;;;59.67;55.93;;;12.50;99.90;;;;;;4976494;28;20220;-77
2022/09/16 02:16:27;;;;;;;75.03;70.73;;;12.50;99.90;;;;;;4974584;28;20191;-78
2022/09/16 02:19:00;;;;;;;100.67;95.00;;;12.40;99.90;;;;;;4971644;28;20672;-77
2022/09/16 02:21:30;;;;;;;176.37;166.83;;;12.40;99.90;;;;;;4971670;28;20265;-78
2022/09/16 02:24:02;;;;;;;151.00;142.83;;;12.40;99.90;;;;;;4971727;28;20700;-77
2022/09/16 02:26:35;;;;;;;91.53;86.00;;;12.30;99.90;;;;;;4972764;28;20192;-77
2022/09/16 02:29:07;;;;;;;63.90;60.10;;;12.40;99.90;;;;;;4972206;28;20206;-77
2022/09/16 02:31:34;;;;;;;33.47;30.70;;;12.40;99.90;;;;;;4976131;28;20260;-77
2022/09/16 02:34:14;;;;;;;15.73;14.30;;;12.40;99.90;;;;;;4978609;28;20207;-78
2022/09/16 02:36:44;;;;;;;23.67;21.80;;;12.30;99.90;;;;;;4976275;28;20192;-78
2022/09/16 02:39:15;;;;;;;15.50;14.20;;;12.30;99.90;;;;;;4976808;28;20716;-78
2022/09/16 02:41:41;;;;;;;21.70;19.83;;;12.30;99.90;;;;;;4973813;28;20188;-77
2022/09/16 02:44:09;;;;;;;38.43;35.93;;;12.30;99.90;;;;;;4975406;28;20204;-78
2022/09/16 02:47:00;;;;;;;95.23;89.40;;;12.20;99.90;;;;;;4976200;28;20191;-78
2022/09/16 02:49:39;;;;;;;62.73;59.07;;;12.20;99.90;;;;;;4976137;28;20216;-77
2022/09/16 02:52:27;;;;;;;52.37;49.03;;;12.10;99.90;;;;;;4973573;28;20181;-77
2022/09/16 02:55:01;;;;;;;33.50;31.00;;;12.00;99.90;;;;;;4974379;28;20184;-77
2022/09/16 02:57:31;;;;;;;37.80;33.17;;;12.10;99.90;;;;;;4974005;28;20195;-78
2022/09/16 02:59:57;;;;;;;58.00;54.40;;;12.10;99.90;;;;;;4975097;28;20199;-78
2022/09/16 03:02:23;;;;;;;32.40;30.27;;;12.20;99.90;;;;;;4976030;28;20193;-78
2022/09/16 03:04:49;;;;;;;35.67;32.67;;;12.20;99.90;;;;;;4976344;28;20181;-77
2022/09/16 03:07:15;;;;;;;36.90;33.57;;;12.30;99.90;;;;;;4974958;28;20682;-77
2022/09/16 03:09:45;;;;;;;36.20;33.70;;;12.30;99.90;;;;;;4976904;28;20191;-78
2022/09/16 03:12:16;;;;;;;29.97;27.60;;;12.40;99.90;;;;;;4977080;28;20189;-73
2022/09/16 03:15:05;;;;;;;29.30;27.30;;;12.50;99.90;;;;;;4979298;28;20276;-73
2022/09/16 03:17:43;;;;;;;48.00;44.20;;;12.50;99.90;;;;;;4966361;28;20754;-74
2022/09/16 03:20:20;;;;;;;64.27;58.63;;;12.50;99.90;;;;;;4974565;28;20195;-74
2022/09/16 03:22:54;;;;;;;18.80;17.40;;;12.50;99.90;;;;;;4974650;28;20211;-74
2022/09/16 03:25:48;;;;;;;14.73;13.43;;;12.50;99.90;;;;;;4974698;28;20184;-74
2022/09/16 03:28:19;;;;;;;18.50;16.97;;;12.50;99.90;;;;;;4974005;28;20257;-74
2022/09/16 03:30:58;;;;;;;44.87;41.33;;;12.40;99.90;;;;;;4974494;28;20602;-74
2022/09/16 03:33:59;;;;;;;54.27;50.70;;;12.40;99.90;;;;;;4974663;28;20204;-74
2022/09/16 03:36:32;;;;;;;37.70;35.27;;;12.40;99.90;;;;;;4974124;28;20653;-74
2022/09/16 03:39:00;;;;;;;21.23;19.53;;;12.40;99.90;;;;;;4972001;28;20195;-74
2022/09/16 03:41:29;;;;;;;19.27;16.67;;;12.40;99.90;;;;;;4972982;28;20194;-74
2022/09/16 03:43:57;;;;;;;17.53;15.90;;;12.30;99.90;;;;;;4974060;28;20211;-74
2022/09/16 03:46:25;;;;;;;21.33;18.53;;;12.40;99.90;;;;;;4974044;28;20707;-74
2022/09/16 03:48:51;;;;;;;16.37;15.07;;;12.40;99.90;;;;;;4954689;28;20706;-74
2022/09/16 03:51:18;;;;;;;15.77;14.37;;;12.50;99.90;;;;;;4954938;28;20189;-74
2022/09/16 03:53:43;;;;;;;14.97;13.80;;;12.50;99.90;;;;;;4954990;28;20205;-74
2022/09/16 03:56:09;;;;;;;18.53;17.07;;;12.50;99.90;;;;;;4954897;29;20174;-74
2022/09/16 03:58:35;;;;;;;23.37;21.27;;;12.50;99.90;;;;;;4971926;28;20188;-74
2022/09/16 04:01:00;;;;;;;29.73;27.50;;;12.50;99.90;;;;;;4974164;28;20207;-74
2022/09/16 04:03:26;;;;;;;59.70;56.23;;;12.40;99.90;;;;;;4973957;28;20220;-73
2022/09/16 04:05:53;;;;;;;133.73;126.33;;;12.40;99.90;;;;;;4972468;28;20553;-74
2022/09/16 04:08:19;;;;;;;184.23;173.97;;;12.40;99.90;;;;;;4973335;28;20217;-73
2022/09/16 04:10:59;;;;;;;141.07;133.13;;;12.40;99.90;;;;;;4973972;28;20320;-74
2022/09/16 04:13:28;;;;;;;52.60;49.40;;;12.50;99.90;;;;;;4973589;28;20207;-74
2022/09/16 04:15:54;;;;;;;23.40;21.50;;;12.50;99.90;;;;;;4976895;28;20173;-73
2022/09/16 04:18:19;;;;;;;18.77;17.17;;;12.50;99.90;;;;;;4983704;28;20185;-73
2022/09/16 04:20:45;;;;;;;21.47;19.60;;;12.50;99.90;;;;;;4973454;28;20203;-74
2022/09/16 04:23:11;;;;;;;20.30;18.63;;;12.50;99.90;;;;;;4974184;28;20208;-74
2022/09/16 04:25:39;;;;;;;16.80;15.30;;;12.60;99.90;;;;;;4973889;28;20216;-73
2022/09/16 04:28:06;;;;;;;20.40;18.63;;;12.60;99.90;;;;;;4972886;28;20688;-74
2022/09/16 04:30:31;;;;;;;24.43;22.60;;;12.60;99.90;;;;;;4972224;28;20664;-74
2022/09/16 04:32:57;;;;;;;32.60;30.50;;;12.70;99.90;;;;;;4973941;28;20504;-74
2022/09/16 04:35:24;;;;;;;52.33;48.90;;;12.60;99.90;;;;;;4973236;28;20181;-74
2022/09/16 04:37:51;;;;;;;98.93;93.33;;;12.70;99.90;;;;;;4972953;28;20200;-74
2022/09/16 04:40:18;;;;;;;74.00;69.50;;;12.70;99.90;;;;;;4973509;28;20188;-74
2022/09/16 04:42:50;;;;;;;119.70;112.77;;;12.70;99.90;;;;;;4972955;28;20714;-73
2022/09/16 04:45:17;;;;;;;137.87;130.03;;;12.70;99.90;;;;;;4973243;28;20196;-74
2022/09/16 04:47:43;;;;;;;206.60;194.93;;;12.70;99.90;;;;;;4972425;28;20200;-74
2022/09/16 04:50:09;;;;;;;219.33;207.10;;;12.70;99.90;;;;;;4973121;28;20188;-74
2022/09/16 04:52:35;;;;;;;194.50;183.03;;;12.70;99.90;;;;;;4973151;28;20201;-74
2022/09/16 04:55:03;;;;;;;114.20;107.50;;;12.70;99.90;;;;;;4972576;28;20674;-74
2022/09/16 04:57:31;;;;;;;120.17;112.97;;;12.70;99.90;;;;;;4972349;28;20184;-73
2022/09/16 04:59:57;;;;;;;96.97;91.43;;;12.70;99.90;;;;;;4971616;28;20572;-74
2022/09/16 05:02:23;;;;;;;93.07;87.43;;;12.70;99.90;;;;;;4972370;28;20725;-73
2022/09/16 05:04:49;;;;;;;126.10;118.37;;;12.70;99.90;;;;;;4972571;28;20336;-73
2022/09/16 05:07:15;;;;;;;117.03;110.00;;;12.70;99.90;;;;;;4972330;28;20205;-74
2022/09/16 05:09:41;;;;;;;120.80;113.53;;;12.70;99.90;;;;;;4973459;28;20538;-71
2022/09/16 05:12:07;;;;;;;221.37;208.80;;;12.70;99.90;;;;;;4972605;28;20206;-71
2022/09/16 05:14:34;;;;;;;188.40;177.73;;;12.80;99.90;;;;;;4972156;28;20196;-71
2022/09/16 05:17:00;;;;;;;137.93;129.83;;;12.80;99.90;;;;;;4971759;28;20188;-71
2022/09/16 05:19:26;;;;;;;93.77;87.87;;;12.80;99.90;;;;;;4972337;28;20187;-71
2022/09/16 05:21:52;;;;;;;89.20;83.63;;;12.80;99.90;;;;;;4972310;28;20564;-71
2022/09/16 05:24:18;;;;;;;147.27;138.97;;;12.90;99.90;;;;;;4972488;28;20216;-73
2022/09/16 05:26:44;;;;;;;150.57;142.20;;;12.90;99.90;;;;;;4971688;28;20192;-72
2022/09/16 05:29:15;;;;;;;77.50;73.00;;;12.80;99.90;;;;;;4970631;28;20208;-72
2022/09/16 05:31:42;;;;;;;72.60;68.17;;;12.80;99.90;;;;;;4972059;28;20188;-72
2022/09/16 05:34:20;;;;;;;83.13;76.60;;;12.80;99.90;;;;;;4970847;28;20223;-71
2022/09/16 05:36:47;;;;;;;80.20;75.67;;;12.90;99.90;;;;;;4986576;28;20190;-71
2022/09/16 05:39:16;;;;;;;61.93;58.03;;;12.90;99.90;;;;;;4991352;28;20193;-72
2022/09/16 05:41:44;;;;;;;67.93;63.73;;;12.90;99.90;;;;;;4975621;28;20247;-72
2022/09/16 05:44:10;;;;;;;79.00;73.97;;;12.90;99.90;;;;;;4972730;28;20266;-72
2022/09/16 05:46:36;;;;;;;89.77;84.63;;;12.90;99.90;;;;;;4973195;28;20185;-72
2022/09/16 05:49:02;;;;;;;86.30;81.33;;;12.90;99.90;;;;;;4971380;28;20213;-72
2022/09/16 05:51:28;;;;;;;49.03;46.00;;;12.90;99.90;;;;;;4972204;28;20259;-72
2022/09/16 05:53:54;;;;;;;98.73;93.13;;;12.90;99.90;;;;;;4971941;28;20207;-72
2022/09/16 05:56:24;;;;;;;68.77;64.77;;;12.90;99.90;;;;;;4971750;28;20537;-72
2022/09/16 05:58:52;;;;;;;55.27;51.10;;;12.90;99.90;;;;;;4970385;28;20188;-72
2022/09/16 06:01:20;;;;;;;72.00;67.63;;;12.90;99.90;;;;;;4972213;28;20570;-72
2022/09/16 06:03:48;;;;;;;49.63;46.60;;;13.00;99.90;;;;;;4971878;28;20627;-71
2022/09/16 06:06:21;;;;;;;66.20;62.27;;;12.90;99.90;;;;;;4972024;28;20220;-71
2022/09/16 06:08:49;;;;;;;72.33;67.93;;;13.00;99.90;;;;;;4970415;28;20302;-71
2022/09/16 06:11:17;;;;;;;43.50;40.70;;;12.90;99.90;;;;;;4972049;28;20212;-71
2022/09/16 06:13:43;;;;;;;46.50;43.63;;;12.90;99.90;;;;;;4972162;28;20204;-71
2022/09/16 06:16:10;;;;;;;41.80;39.17;;;12.90;99.90;;;;;;4972111;28;20188;-71
2022/09/16 06:18:36;;;;;;;50.37;46.63;;;12.90;99.90;;;;;;4971109;28;20575;-71
2022/09/16 06:21:08;;;;;;;137.27;129.17;;;13.00;99.90;;;;;;4972111;28;20212;-71
2022/09/16 06:23:36;;;;;;;182.00;171.63;;;12.90;99.90;;;;;;4971449;28;20240;-72
2022/09/16 06:26:10;;;;;;;156.37;147.60;;;13.00;99.90;;;;;;4971759;28;20185;-73
2022/09/16 06:28:36;;;;;;;160.13;151.07;;;13.00;99.90;;;;;;4971083;28;20716;-73
2022/09/16 06:31:11;;;;;;;113.83;107.43;;;13.00;99.90;;;;;;4971947;28;20183;-72
2022/09/16 06:33:37;;;;;;;59.27;55.67;;;13.10;99.90;;;;;;4971511;28;20694;-72
2022/09/16 06:36:06;;;;;;;103.10;97.17;;;13.10;99.90;;;;;;4971565;28;20177;-72
2022/09/16 06:38:32;;;;;;;160.23;151.17;;;13.10;99.90;;;;;;4970894;28;20283;-72
2022/09/16 06:41:00;;;;;;;204.60;192.93;;;13.10;99.90;;;;;;4970414;28;20195;-73
2022/09/16 06:43:26;;;;;;;182.20;171.60;;;13.20;99.90;;;;;;4970357;28;20211;-72
2022/09/16 06:46:15;;;;;;;89.93;84.73;;;13.20;99.90;;;;;;4971769;28;20181;-73
2022/09/16 06:48:43;;;;;;;86.53;81.70;;;13.20;99.90;;;;;;4970359;28;20244;-73
2022/09/16 06:51:15;;;;;;;81.10;76.57;;;13.20;99.90;;;;;;4981057;28;20173;-72
2022/09/16 06:53:41;;;;;;;86.43;81.53;;;13.20;99.90;;;;;;4986015;28;20307;-73
2022/09/16 06:56:12;;;;;;;70.80;66.53;;;13.20;99.90;;;;;;4972050;28;20185;-73
2022/09/16 06:58:40;;;;;;;130.40;123.23;;;13.20;99.90;;;;;;4986699;28;20559;-73
2022/09/16 07:01:11;;;;;;;188.77;177.50;;;13.20;99.90;;;;;;4970879;28;20666;-73
2022/09/16 07:03:39;;;;;;;220.90;208.13;;;13.10;99.90;;;;;;4971835;28;20631;-73
2022/09/16 07:06:06;;;;;;;202.90;190.77;;;13.10;99.90;;;;;;4971613;28;20174;-73
2022/09/16 07:08:33;;;;;;;186.93;176.47;;;13.10;99.90;;;;;;4971058;28;20256;-73
2022/09/16 07:11:09;;;;;;;160.33;150.90;;;13.20;99.90;;;;;;4970358;28;20542;-73
2022/09/16 07:13:35;;;;;;;111.70;105.60;;;13.20;99.90;;;;;;4970661;28;20618;-72
2022/09/16 07:16:07;;;;;;;61.70;58.00;;;13.20;99.90;;;;;;4971750;28;20177;-73
2022/09/16 07:18:33;;;;;;;71.80;67.43;;;13.20;99.90;;;;;;4974074;28;20189;-73
2022/09/16 07:21:19;;;;;;;180.80;170.50;;;13.10;99.90;;;;;;4980559;28;20215;-72
2022/09/16 07:23:47;;;;;;;149.63;140.60;;;13.10;99.90;;;;;;4980428;28;20215;-73
2022/09/16 07:26:22;;;;;;;182.73;172.77;;;13.10;99.90;;;;;;4977455;28;20576;-74
2022/09/16 07:28:49;;;;;;;143.37;135.33;;;13.00;99.90;;;;;;4977064;28;20709;-72
2022/09/16 07:31:20;;;;;;;210.50;199.43;;;12.90;99.90;;;;;;4974969;28;20185;-72
2022/09/16 07:33:48;;;;;;;166.57;156.97;;;12.70;99.90;;;;;;4974954;28;20215;-72
2022/09/16 07:36:17;;;;;;;41.30;38.17;;;12.80;99.90;;;;;;4974760;28;20177;-72
2022/09/16 07:38:43;;;;;;;25.10;23.03;;;12.80;99.90;;;;;;4974189;28;20216;-73
2022/09/16 07:41:14;;;;;;;59.57;55.93;;;12.80;99.90;;;;;;4973530;28;20208;-73
2022/09/16 07:43:41;;;;;;;160.10;150.73;;;12.90;99.90;;;;;;4974728;28;20213;-73
2022/09/16 07:46:10;;;;;;;70.33;66.37;;;13.00;99.90;;;;;;4974685;28;20183;-73
2022/09/16 07:48:36;;;;;;;75.50;71.27;;;13.10;99.90;;;;;;4973680;28;20304;-72
2022/09/16 07:51:04;;;;;;;44.67;42.03;;;13.10;99.90;;;;;;4974335;28;20177;-73
2022/09/16 07:53:31;;;;;;;33.13;31.20;;;13.10;99.90;;;;;;4974427;28;20272;-74
2022/09/16 07:56:06;;;;;;;19.50;18.07;;;13.00;99.90;;;;;;4973489;28;20184;-73
2022/09/16 07:58:33;;;;;;;11.90;10.80;;;13.00;99.90;;;;;;4973674;28;20188;-76
2022/09/16 08:01:01;;;;;;;10.50;9.50;;;13.00;99.90;;;;;;4971891;28;20688;-73
2022/09/16 08:03:48;;;;;;;17.10;15.20;;;12.90;99.90;;;;;;4982598;28;20204;-73
2022/09/16 08:06:17;;;;;;;16.33;15.10;;;13.00;99.90;;;;;;4958417;28;20189;-74
2022/09/16 08:08:44;;;;;;;11.03;10.07;;;13.00;99.90;;;;;;4973762;28;20201;-73
2022/09/16 08:11:13;;;;;;;13.47;10.40;;;13.10;99.90;;;;;;4973900;28;20192;-73
2022/09/16 08:13:40;;;;;;;11.57;10.63;;;13.20;99.90;;;;;;4973172;28;20197;-73
2022/09/16 08:16:09;;;;;;;17.93;16.27;;;13.40;99.90;;;;;;4973472;28;20552;-73
2022/09/16 08:18:35;;;;;;;22.80;21.30;;;13.40;99.90;;;;;;4973282;28;20665;-73
2022/09/16 08:21:13;;;;;;;17.77;16.27;;;13.50;99.90;;;;;;4972696;28;20210;-73
2022/09/16 08:23:40;;;;;;;19.80;18.57;;;13.70;99.90;;;;;;4972595;28;20208;-73
2022/09/16 08:26:09;;;;;;;14.17;12.80;;;13.90;99.90;;;;;;4973797;28;20283;-73
2022/09/16 08:28:38;;;;;;;32.23;30.30;;;14.00;99.90;;;;;;4973268;28;20205;-74
2022/09/16 08:31:04;;;;;;;26.77;25.17;;;14.10;99.90;;;;;;4972571;28;20694;-74
2022/09/16 08:33:30;;;;;;;56.80;53.77;;;14.00;99.90;;;;;;4973811;28;20197;-74
2022/09/16 08:36:01;;;;;;;55.40;52.33;;;14.00;99.90;;;;;;4973833;28;20183;-74
2022/09/16 08:38:27;;;;;;;36.47;34.43;;;14.10;99.90;;;;;;4973137;28;20658;-75
2022/09/16 08:41:21;;;;;;;49.30;46.63;;;13.90;99.90;;;;;;4973725;28;20681;-74
2022/09/16 08:44:56;;;;;;;67.60;63.90;;;13.90;99.90;;;;;;4973541;28;20592;-75
2022/09/16 08:47:55;;;;;;;57.03;53.73;;;14.00;99.90;;;;;;4860730;29;20284;-74
2022/09/16 08:50:28;;;;;;;67.43;63.67;;;14.00;99.90;;;;;;4894827;29;20599;-74
2022/09/16 08:52:58;;;;;;;81.17;76.93;;;14.10;99.90;;;;;;4939226;28;20217;-74
2022/09/16 08:55:34;;;;;;;91.47;86.70;;;14.20;99.90;;;;;;4954088;28;20189;-75
2022/09/16 08:58:03;;;;;;;92.77;87.77;;;14.30;99.90;;;;;;4956421;28;20187;-74
2022/09/16 09:00:30;;;;;;;45.63;43.03;;;14.50;99.90;;;;;;4973644;28;20192;-75
2022/09/16 09:03:06;;;;;;;26.53;24.83;;;14.70;99.90;;;;;;4971866;28;20227;-75
2022/09/16 09:05:35;;;;;;;20.87;19.67;;;14.80;99.90;;;;;;4973300;28;20247;-75
2022/09/16 09:08:32;;;;;;;17.33;16.17;;;14.80;99.90;;;;;;4972965;28;20236;-75
2022/09/16 09:11:16;;;;;;;15.20;14.00;;;14.80;99.90;;;;;;4972405;28;20232;-74
2022/09/16 09:13:57;;;;;;;11.23;10.53;;;14.70;99.90;;;;;;4978157;28;20223;-74
2022/09/16 09:16:38;;;;;;;14.30;13.20;;;14.70;99.90;;;;;;4981014;28;20583;-73
2022/09/16 09:19:30;;;;;;;14.93;13.47;;;14.60;99.90;;;;;;4972513;28;20200;-74
2022/09/16 09:22:18;;;;;;;11.87;11.17;;;14.60;99.90;;;;;;4953910;29;20233;-73
2022/09/16 09:25:09;;;;;;;11.63;10.53;;;14.60;99.90;;;;;;4953385;28;20193;-74
2022/09/16 09:27:46;;;;;;;11.93;10.97;;;14.60;99.90;;;;;;4969765;28;20248;-73
2022/09/16 09:30:23;;;;;;;12.53;11.63;;;14.60;99.90;;;;;;4969743;28;20709;-73
2022/09/16 09:33:23;;;;;;;17.87;16.30;;;14.60;99.90;;;;;;4954711;28;20205;-73
2022/09/16 09:36:12;;;;;;;72.93;68.83;;;14.60;99.90;;;;;;4953668;28;20236;-73
2022/09/16 09:38:43;;;;;;;30.83;28.83;;;14.70;99.90;;;;;;4960990;28;20642;-73
2022/09/16 09:41:12;;;;;;;14.53;13.43;;;14.80;99.90;;;;;;4973264;28;20653;-74
2022/09/16 09:43:56;;;;;;;13.67;12.67;;;14.80;99.90;;;;;;4973816;28;20626;-73
2022/09/16 09:46:29;;;;;;;13.73;12.47;;;14.90;99.90;;;;;;4969825;28;20654;-73
2022/09/16 09:49:15;;;;;;;13.30;12.20;;;15.00;99.90;;;;;;4972466;28;20228;-74
2022/09/16 09:51:50;;;;;;;56.10;52.93;;;15.30;99.90;;;;;;4971365;28;20267;-74
2022/09/16 09:54:25;;;;;;;76.57;72.67;;;15.60;99.90;;;;;;4972013;28;20212;-74
2022/09/16 09:57:00;;;;;;;26.03;24.40;;;15.70;99.90;;;;;;4971982;28;20184;-74
2022/09/16 09:59:47;;;;;;;12.43;11.20;;;15.60;99.90;;;;;;4971805;28;20258;-74
2022/09/16 10:02:24;;;;;;;11.70;10.93;;;15.50;99.90;;;;;;4969051;28;20196;-72
2022/09/16 10:04:50;;;;;;;27.53;25.93;;;15.50;99.90;;;;;;4971891;28;20220;-72
2022/09/16 10:07:20;;;;;;;33.97;32.00;;;15.50;99.90;;;;;;4971162;28;20229;-73
2022/09/16 10:09:59;;;;;;;46.00;43.30;;;15.70;99.90;;;;;;4969273;28;20212;-73
2022/09/16 10:12:34;;;;;;;29.13;27.07;;;15.90;99.90;;;;;;4970858;28;20192;-73
2022/09/16 10:15:00;;;;;;;9.70;9.00;;;16.20;99.90;;;;;;4971644;28;20188;-73
2022/09/16 10:17:31;;;;;;;13.80;12.90;;;16.30;99.90;;;;;;4971191;28;20184;-74
2022/09/16 10:20:00;;;;;;;8.30;7.63;;;16.20;99.90;;;;;;4971646;28;20185;-73
2022/09/16 10:22:28;;;;;;;7.87;7.07;;;16.20;99.90;;;;;;4967530;28;20189;-73
2022/09/16 10:24:59;;;;;;;7.63;6.83;;;15.90;99.90;;;;;;4975022;28;20187;-75
2022/09/16 10:27:34;;;;;;;7.10;6.40;;;15.40;99.90;;;;;;4985892;28;20209;-83
2022/09/16 10:30:14;;;;;;;7.67;6.43;;;15.20;99.90;;;;;;4978105;28;20565;-82
2022/09/16 10:32:49;;;;;;;13.77;12.67;;;15.10;99.90;;;;;;4977085;28;20201;-82
2022/09/16 10:35:22;;;;;;;43.13;40.43;;;15.30;99.90;;;;;;4975407;28;20180;-82
2022/09/16 10:38:12;;;;;;;52.43;49.47;;;15.40;99.90;;;;;;4975207;28;20613;-81
2022/09/16 10:40:49;;;;;;;49.27;46.67;;;15.50;99.90;;;;;;4957867;28;20671;-81
2022/09/16 10:43:15;;;;;;;13.97;12.97;;;15.50;99.90;;;;;;4976162;28;20204;-81
2022/09/16 10:45:47;;;;;;;11.77;9.77;;;15.40;99.90;;;;;;4977766;28;20288;-81
2022/09/16 10:48:33;;;;;;;10.67;9.77;;;15.60;99.90;;;;;;4978987;28;20241;-81
2022/09/16 10:51:05;;;;;;;13.63;10.03;;;15.70;99.90;;;;;;4976640;28;20193;-81
2022/09/16 10:53:39;;;;;;;14.50;13.67;;;15.60;99.90;;;;;;4978983;28;20204;-81
2022/09/16 10:56:14;;;;;;;24.20;22.73;;;15.40;99.90;;;;;;4990769;28;20204;-80
2022/09/16 10:58:40;;;;;;;7.43;6.73;;;15.20;99.90;;;;;;4979706;28;20715;-80
2022/09/16 11:01:12;;;;;;;11.57;8.40;;;15.40;99.90;;;;;;4978686;28;20268;-80
2022/09/16 11:03:50;;;;;;;19.07;17.73;;;15.50;99.90;;;;;;4979041;28;20733;-80
2022/09/16 11:06:38;;;;;;;17.70;16.37;;;15.50;99.90;;;;;;4980376;28;20189;-80
2022/09/16 11:09:21;;;;;;;16.40;15.10;;;15.50;99.90;;;;;;4978619;28;20686;-80
2022/09/16 11:11:47;;;;;;;12.43;11.53;;;15.60;99.90;;;;;;4983058;28;20249;-79
2022/09/16 11:14:24;;;;;;;10.30;9.40;;;15.60;99.90;;;;;;4981025;28;20236;-79
2022/09/16 11:17:05;;;;;;;8.83;8.03;;;15.60;99.90;;;;;;4980706;28;20176;-79
2022/09/16 11:19:43;;;;;;;8.80;8.00;;;15.60;99.90;;;;;;4988337;28;20180;-78
2022/09/16 11:22:29;;;;;;;8.27;7.27;;;15.60;99.90;;;;;;4981796;28;20195;-78
2022/09/16 11:25:26;;;;;;;10.10;8.80;;;15.50;99.90;;;;;;4980883;28;20181;-79
2022/09/16 11:28:17;;;;;;;9.43;8.63;;;15.50;99.90;;;;;;4978473;28;20244;-79
2022/09/16 11:31:04;;;;;;;9.20;8.40;;;15.50;99.90;;;;;;4958351;29;20193;-79
2022/09/16 11:33:45;;;;;;;9.77;9.00;;;15.60;99.90;;;;;;4958155;28;20202;-77
2022/09/16 11:36:17;;;;;;;9.13;8.33;;;15.60;99.90;;;;;;4958564;28;20651;-78
2022/09/16 11:38:59;;;;;;;10.67;9.63;;;15.60;99.90;;;;;;4972686;28;20215;-79
2022/09/16 11:41:39;;;;;;;19.07;17.93;;;15.60;99.90;;;;;;4970418;28;20203;-79
2022/09/16 11:44:11;;;;;;;8.90;8.17;;;15.50;99.90;;;;;;4975923;28;20204;-79
2022/09/16 11:46:49;;;;;;;8.73;7.93;;;15.40;99.90;;;;;;4976450;28;20192;-79
2022/09/16 11:49:45;;;;;;;11.40;10.60;;;15.30;99.90;;;;;;4974665;28;20200;-79
2022/09/16 11:52:39;;;;;;;8.83;7.90;;;15.30;99.90;;;;;;4975467;28;20239;-78
2022/09/16 11:55:34;;;;;;;9.80;8.87;;;15.10;99.90;;;;;;4976596;28;20189;-79
2022/09/16 11:58:14;;;;;;;10.23;9.33;;;15.10;99.90;;;;;;4951146;28;20200;-78
2022/09/16 12:00:41;;;;;;;9.77;7.97;;;15.10;99.90;;;;;;4976246;28;20248;-78
2022/09/16 12:03:22;;;;;;;8.40;7.33;;;15.20;99.90;;;;;;4978024;28;20220;-78
2022/09/16 12:06:03;;;;;;;8.50;7.87;;;15.40;99.90;;;;;;4975692;28;20193;-77
2022/09/16 12:08:40;;;;;;;8.20;7.53;;;15.60;99.90;;;;;;4975089;28;20360;-78
2022/09/16 12:11:09;;;;;;;7.97;7.33;;;15.80;99.90;;;;;;4976997;28;20267;-79
2022/09/16 12:13:47;;;;;;;25.93;24.30;;;15.90;99.90;;;;;;4975076;28;20197;-80
2022/09/16 12:16:33;;;;;;;46.57;43.93;;;16.30;99.90;;;;;;4975458;28;20185;-80
2022/09/16 12:19:06;;;;;;;36.33;33.70;;;16.60;99.90;;;;;;4977700;28;20193;-82
2022/09/16 12:21:40;;;;;;;34.57;32.37;;;16.80;99.90;;;;;;4986499;28;20185;-79
2022/09/16 12:24:29;;;;;;;19.17;17.57;;;17.20;99.90;;;;;;4979198;28;20279;-81
2022/09/16 12:27:15;;;;;;;10.20;9.37;;;17.80;99.90;;;;;;4978087;28;20181;-82
2022/09/16 12:29:59;;;;;;;14.47;13.37;;;18.30;99.90;;;;;;4977659;28;20580;-81
2022/09/16 12:32:43;;;;;;;13.90;12.97;;;19.40;99.90;;;;;;4976473;28;20196;-80
2022/09/16 12:35:31;;;;;;;6.07;5.57;;;20.50;99.90;;;;;;4955458;29;20184;-81
2022/09/16 12:37:58;;;;;;;12.10;11.00;;;21.90;99.90;;;;;;4956946;28;20189;-80
2022/09/16 12:40:46;;;;;;;8.33;7.27;;;22.40;99.90;;;;;;4957516;28;20268;-79
2022/09/16 12:43:37;;;;;;;32.93;31.23;;;21.60;99.90;;;;;;4962992;28;20635;-81
2022/09/16 12:46:21;;;;;;;35.10;33.30;;;21.40;99.90;;;;;;4976738;28;20181;-82
2022/09/16 12:49:05;;;;;;;24.07;22.63;;;21.20;99.90;;;;;;4976550;28;20224;-83
2022/09/16 12:52:09;;;;;;;9.27;8.77;;;21.70;99.90;;;;;;4989623;28;20184;-84
2022/09/16 12:54:50;;;;;;;11.93;11.33;;;22.30;99.90;;;;;;4974761;28;20280;-84
2022/09/16 12:57:22;;;;;;;35.63;32.87;;;22.80;99.90;;;;;;4976763;28;20185;-83
2022/09/16 12:59:57;;;;;;;25.53;23.73;;;23.00;99.90;;;;;;4975684;28;20739;-78
2022/09/16 13:02:31;;;;;;;33.73;31.73;;;23.30;99.90;;;;;;4973259;28;20272;-77